KBCB

Virginia Tech / Montgomery Executive Airport

Blacksburg, Virginia, USA
METAR KBCB 092155Z AUTO 06006KT 2SM -SN OVC035 M03/M03 A3008 RMK AO2 T10261033
Observed Flight Rules
Dec-9 @ 21:55 UTC (34 minutes ago) Instrument Flight Rules
Wind Visibility Clouds Conditions
60° at 6 knots 2 miles
  • Overcast at 3,500' AGL
  • Light Snow
Temperatures Readings
Current -3°C / 27°F
Dewpoint -3°C / 27°F
Humidity 100%
Altimeter 30.08" Hg
Pressure 1019 hPa
Elevation 650
METAR KBCB 092155Z AUTO 06006KT 2SM -SN OVC035 M03/M03 A3008 RMK AO2 T10261033
Observed Flight Rules
Dec-9 @ 21:55 UTC
(34 minutes ago)
IFR
Wind Visibility
60° at 6 knots 2 miles
Clouds
  • Overcast at 3,500' AGL
Conditions
  • Light Snow
Temperature Dewpoint
-3°C / 27°F -3°C / 27°F
Humidity Altimeter Pressure
100% 30.08" Hg 1019 hPa